Moveon — CQBR — position and weather

sailwx.info

Track history (hours):
 
Tides and Currents Weather Stations Pressure Air Temp Water Temp Dewpoint Dewpoint Depression Visibility Wind Speed Wind Dir Waves Ship Positions

Moveon

Last reported at 2018-Jun-19 10:29 UTC. Time now 2018-Jun-19 10:53 UTC.
Position N 49°21' E 000°59'.

Length 134 m; draft 8.6 m.

Type: Ship. MMSI: 255805846.

Date/timePositionNaut miles runAvg speedWind from/ knotsBaromVisibWave heightAir tempDewpointWater temp
2018-Jun-19 10:29N 49°21' E 000°59'0 0.0
2018-Jun-19 09:59N 49°21' E 000°59'0 0.0
2018-Jun-19 09:23N 49°21' E 000°59'0 0.0
2018-Jun-19 08:59N 49°21' E 000°59'0 0.0
2018-Jun-19 08:29N 49°21' E 000°59'0 0.0
2018-Jun-19 07:59N 49°21' E 000°59'0 0.0
2018-Jun-19 07:29N 49°21' E 000°59'0 0.0
2018-Jun-19 06:59N 49°21' E 000°59'0 0.0
2018-Jun-19 06:29N 49°21' E 000°59'0 0.0
2018-Jun-19 05:59N 49°21' E 000°59'0 0.0
2018-Jun-19 05:29N 49°21' E 000°59'0 0.0
2018-Jun-19 04:59N 49°21' E 000°59'0 0.0
2018-Jun-19 04:29N 49°21' E 000°59'0 0.0
2018-Jun-19 03:59N 49°21' E 000°59'0 0.0
2018-Jun-19 03:29N 49°21' E 000°59'0 0.3
2018-Jun-19 03:00N 49°21' E 000°59'3 5.5
2018-Jun-19 02:30N 49°23' E 000°55'612.6
2018-Jun-19 02:00N 49°29' E 000°55'5 9.8
2018-Jun-19 01:30N 49°24' E 000°52'4 7.5
2018-Jun-19 01:00N 49°28' E 000°49'510.5
2018-Jun-19 00:30N 49°31' E 000°43'511.0
2018-Jun-19 00:00N 49°27' E 000°39'5 9.7
2018-Jun-18 23:30N 49°28' E 000°32'611.9
2018-Jun-18 23:01N 49°27' E 000°23'815.0
2018-Jun-18 22:30N 49°26' E 000°11'713.6
2018-Jun-18 22:00N 49°27' E 000°01'5 9.7
2018-Jun-18 21:31N 49°29' W 000°06'611.0
2018-Jun-18 21:00N 49°28' W 000°14'0 0.3
2018-Jun-18 20:30N 49°28' W 000°14'0 0.8
2018-Jun-18 20:00N 49°28' W 000°14'0 0.8
2018-Jun-18 19:30N 49°29' W 000°14'0 0.8
2018-Jun-18 19:00N 49°29' W 000°13'0 0.7
2018-Jun-18 18:30N 49°29' W 000°13'3 5.2
2018-Jun-18 18:00N 49°32' W 000°12'510.5
2018-Jun-18 17:30N 49°37' W 000°10'612.9
2018-Jun-18 17:00N 49°43' W 000°09'612.7
2018-Jun-18 16:30N 49°49' W 000°09'612.6
2018-Jun-18 16:00N 49°56' W 000°08'814.9
2018-Jun-18 15:30N 50°03' W 000°08'4011.9
2018-Jun-18 12:07N 50°34' E 000°33'413.7
2018-Jun-18 11:50N 50°36' E 000°39'614.2
2018-Jun-18 11:25N 50°39' E 000°46'615.1
2018-Jun-18 11:00N 50°42' E 000°55'1616.5
2018-Jun-18 10:03N 50°52' E 001°14'217.6
2018-Jun-18 09:57N 50°54' E 001°16'818.1
2018-Jun-18 09:30N 50°59' E 001°25'917.9
2018-Jun-18 08:58N 51°06' E 001°36'612.8
2018-Jun-18 08:31N 51°04' E 001°45'916.3
2018-Jun-18 07:58N 51°02' E 001°59'713.7
2018-Jun-18 07:26N 51°02' E 002°10'1 0.7
2018-Jun-18 05:34N 51°00' E 002°11'0 0.0
2018-Jun-18 05:22N 51°00' E 002°11'0 0.0
2018-Jun-18 04:52N 51°00' E 002°11'0 0.0
2018-Jun-18 04:19N 51°00' E 002°11'0 0.0
2018-Jun-18 03:13N 51°00' E 002°11'0 0.0
2018-Jun-18 02:58N 51°00' E 002°11'0 0.0
2018-Jun-18 02:25N 51°00' E 002°11'0 0.0
2018-Jun-18 01:58N 51°00' E 002°11'0 0.0
2018-Jun-18 01:28N 51°00' E 002°11'0 0.0
2018-Jun-18 00:58N 51°00' E 002°11'0 0.0
2018-Jun-18 00:28N 51°00' E 002°11'0 0.0
2018-Jun-17 23:49N 51°00' E 002°11'0 0.0
2018-Jun-17 23:25N 51°00' E 002°11'0 0.4
2018-Jun-17 23:01N 51°01' E 002°11'4 6.9
2018-Jun-17 22:29N 51°03' E 002°06'713.9
2018-Jun-17 22:01N 51°02' E 001°56'510.8
2018-Jun-17 21:30N 51°02' E 001°47'613.0
2018-Jun-17 21:01N 51°07' E 001°40'713.3
2018-Jun-17 20:30N 51°13' E 001°45'816.2
2018-Jun-17 20:00N 51°19' E 001°53'815.0
2018-Jun-17 19:30N 51°25' E 002°00'815.9
2018-Jun-17 19:00N 51°22' E 002°12'714.2
2018-Jun-17 18:30N 51°22' E 002°24'814.7
2018-Jun-17 18:00N 51°23' E 002°36'713.5
2018-Jun-17 17:30N 51°22' E 002°46'713.5
2018-Jun-17 17:00N 51°23' E 002°57'714.1
2018-Jun-17 16:30N 51°24' E 003°08'714.0
2018-Jun-17 16:00N 51°25' E 003°19'713.9
2018-Jun-17 15:30N 51°25' E 003°30'510.2
2018-Jun-17 15:00N 51°26' E 003°38'4 7.9
2018-Jun-17 14:30N 51°24' E 003°43'612.9
2018-Jun-17 14:00N 51°21' E 003°52'713.3
2018-Jun-17 13:31N 51°26' E 003°59'611.6
2018-Jun-17 13:00N 51°22' E 004°06'5 9.8
2018-Jun-17 12:30N 51°22' E 004°14'2 2.3
2018-Jun-17 11:36N 51°20' E 004°17'0 0.0
2018-Jun-17 11:12N 51°20' E 004°17'0 0.0
2018-Jun-17 10:48N 51°20' E 004°17'0 0.0
2018-Jun-17 10:28N 51°20' E 004°17'0 0.0
2018-Jun-17 09:58N 51°20' E 004°17'0 0.0
2018-Jun-17 09:20N 51°20' E 004°17'0 0.0
2018-Jun-17 08:32N 51°20' E 004°17'0 0.0
2018-Jun-17 08:30N 51°20' E 004°17'0 0.0
2018-Jun-17 07:56N 51°20' E 004°17'0 0.0
2018-Jun-17 07:30N 51°20' E 004°17'0 0.0
2018-Jun-17 07:00N 51°20' E 004°17'0 0.0
2018-Jun-17 06:13N 51°20' E 004°17'0 0.0
2018-Jun-17 05:57N 51°20' E 004°17'0 0.0
2018-Jun-17 05:30N 51°20' E 004°17'0 0.0
2018-Jun-17 04:56N 51°20' E 004°17'0 0.0
2018-Jun-17 04:22N 51°20' E 004°17'0 0.0
2018-Jun-17 03:53N 51°20' E 004°17'0 0.0
2018-Jun-17 03:23N 51°20' E 004°17'0 0.0
2018-Jun-17 02:45N 51°20' E 004°17'0 0.0
2018-Jun-17 02:27N 51°20' E 004°17'0 0.0
2018-Jun-17 02:00N 51°20' E 004°17'0 0.0
2018-Jun-17 01:24N 51°20' E 004°17'1 1.9
2018-Jun-17 00:53N 51°21' E 004°15'410.6
2018-Jun-17 00:30N 51°24' E 004°11'510.7
2018-Jun-17 00:00N 51°24' E 004°02'4 7.8
2018-Jun-16 23:30N 51°23' E 003°56'714.9
2018-Jun-16 23:00N 51°22' E 003°44'713.2
2018-Jun-16 22:30N 51°26' E 003°35'713.3
2018-Jun-16 22:00N 51°25' E 003°25'815.3
2018-Jun-16 21:29N 51°24' E 003°12'814.6
2018-Jun-16 20:57N 51°25' E 002°60'715.7
2018-Jun-16 20:30N 51°32' E 003°05'915.4
2018-Jun-16 19:55N 51°40' E 003°12'1513.4
2018-Jun-16 18:48N 51°54' E 003°18'512.7
2018-Jun-16 18:24N 51°59' E 003°20'512.2
2018-Jun-16 17:58N 52°03' E 003°26'714.4
2018-Jun-16 17:30N 52°03' E 003°37'714.6
2018-Jun-16 17:00N 52°03' E 003°49'4 8.2
2018-Jun-16 16:30N 52°02' E 003°55'713.0
2018-Jun-16 16:00N 51°59' E 004°05'510.7
2018-Jun-16 15:30N 51°56' E 004°12'510.1
2018-Jun-16 15:00N 51°54' E 004°19'4 8.3
2018-Jun-16 14:30N 51°54' E 004°26'1 1.0
2018-Jun-16 13:49N 51°53' E 004°26'0 0.0
2018-Jun-16 13:28N 51°53' E 004°26'0 0.0
2018-Jun-16 12:55N 51°53' E 004°26'0 0.0
2018-Jun-16 12:28N 51°53' E 004°26'0 0.0
2018-Jun-16 11:58N 51°53' E 004°26'0 0.0
2018-Jun-16 11:28N 51°53' E 004°26'0 0.0
2018-Jun-16 10:55N 51°53' E 004°26'0 0.0
2018-Jun-16 10:28N 51°53' E 004°26'0 0.0
2018-Jun-16 09:58N 51°53' E 004°26'0 0.0
2018-Jun-16 09:25N 51°53' E 004°26'0 0.0
2018-Jun-16 08:58N 51°53' E 004°26'0 0.0
2018-Jun-16 08:28N 51°53' E 004°26'0 0.0
2018-Jun-16 07:58N 51°53' E 004°26'0 0.0
2018-Jun-16 07:28N 51°53' E 004°26'0 0.0
2018-Jun-16 06:58N 51°53' E 004°26'0 0.0
2018-Jun-16 06:28N 51°53' E 004°26'0 0.0
2018-Jun-16 05:58N 51°53' E 004°26'1 1.3
2018-Jun-16 05:28N 51°54' E 004°27'0 0.1
2018-Jun-16 04:58N 51°54' E 004°27'0 0.0
2018-Jun-16 04:28N 51°54' E 004°27'0 0.0
2018-Jun-16 03:55N 51°54' E 004°27'0 0.0
2018-Jun-16 03:28N 51°54' E 004°27'0 0.0
2018-Jun-16 02:58N 51°54' E 004°27'0 0.0
2018-Jun-16 02:28N 51°54' E 004°27'0 0.0
2018-Jun-16 01:58N 51°54' E 004°27'0 0.0
2018-Jun-16 01:28N 51°54' E 004°27'0 0.0
2018-Jun-16 00:58N 51°54' E 004°27'0 0.0
2018-Jun-16 00:28N 51°54' E 004°27'0 0.0
2018-Jun-15 23:58N 51°54' E 004°27'0 0.0
2018-Jun-15 23:28N 51°54' E 004°27'0 0.0
2018-Jun-15 22:58N 51°54' E 004°27'0 0.0
2018-Jun-15 22:28N 51°54' E 004°27'0 0.0
2018-Jun-15 21:58N 51°54' E 004°27'0 0.0
2018-Jun-15 21:28N 51°54' E 004°27'0 0.0
2018-Jun-15 20:58N 51°54' E 004°27'0 0.0
2018-Jun-15 20:28N 51°54' E 004°27'0 0.0
2018-Jun-15 19:58N 51°54' E 004°27'0 0.0
2018-Jun-15 19:28N 51°54' E 004°27'0 0.0
2018-Jun-15 18:58N 51°54' E 004°27'0 0.0
2018-Jun-15 18:28N 51°54' E 004°27'0 0.0
2018-Jun-15 17:58N 51°54' E 004°27'0 0.0
2018-Jun-15 17:28N 51°54' E 004°27'0 0.0
2018-Jun-15 16:58N 51°54' E 004°27'0 0.0
2018-Jun-15 16:28N 51°54' E 004°27'0 0.0
2018-Jun-15 15:58N 51°54' E 004°27'0 0.0
2018-Jun-15 15:25N 51°54' E 004°27'0 0.0
2018-Jun-15 14:58N 51°54' E 004°27'0 0.0
2018-Jun-15 14:28N 51°54' E 004°27'0 0.0
2018-Jun-15 13:58N 51°54' E 004°27'0 0.0
2018-Jun-15 13:28N 51°54' E 004°27'0 0.0
2018-Jun-15 12:58N 51°54' E 004°27'0 0.0
2018-Jun-15 12:28N 51°54' E 004°27'0 0.0
2018-Jun-15 11:58N 51°54' E 004°27'0 0.0
2018-Jun-15 11:28N 51°54' E 004°27'0 0.0
2018-Jun-15 10:58N 51°54' E 004°27'0 0.0
2018-Jun-15 10:25N 51°54' E 004°27'0 0.0
2018-Jun-15 09:58N 51°54' E 004°27'0 0.0
2018-Jun-15 09:28N 51°54' E 004°27'0 0.0
2018-Jun-15 08:58N 51°54' E 004°27'0 0.0
2018-Jun-15 08:28N 51°54' E 004°27'0 0.0
2018-Jun-15 07:55N 51°54' E 004°27'0 0.0
2018-Jun-15 07:28N 51°54' E 004°27'0 0.0
2018-Jun-15 06:58N 51°54' E 004°27'0 0.0
2018-Jun-15 06:25N 51°54' E 004°27'0 0.0
2018-Jun-15 05:58N 51°54' E 004°27'0 0.0
2018-Jun-15 05:28N 51°54' E 004°27'0 0.0
2018-Jun-15 04:58N 51°54' E 004°27'0 0.0
2018-Jun-15 04:28N 51°54' E 004°27'0 0.0
2018-Jun-15 03:58N 51°54' E 004°27'0 0.0
2018-Jun-15 03:28N 51°54' E 004°27'0 0.0
2018-Jun-15 02:58N 51°54' E 004°27'0 0.0
2018-Jun-15 02:28N 51°54' E 004°27'0 0.0
2018-Jun-15 01:58N 51°54' E 004°27'0 0.0
2018-Jun-15 01:28N 51°54' E 004°27'0 0.0
2018-Jun-15 00:58N 51°54' E 004°27'0 0.0
2018-Jun-15 00:28N 51°54' E 004°27'0 0.0
2018-Jun-14 23:58N 51°54' E 004°27'0 0.0
2018-Jun-14 23:28N 51°54' E 004°27'0 0.0
2018-Jun-14 22:58N 51°54' E 004°27'0 0.0
2018-Jun-14 22:28N 51°54' E 004°27'0 0.0
2018-Jun-14 21:58N 51°54' E 004°27'0 0.0
2018-Jun-14 21:28N 51°54' E 004°27'0 0.0
2018-Jun-14 20:58N 51°54' E 004°27'0 0.0
2018-Jun-14 20:28N 51°54' E 004°27'0 0.0
2018-Jun-14 19:58N 51°54' E 004°27'0 0.0
2018-Jun-14 19:28N 51°54' E 004°27'0 0.0
2018-Jun-14 18:55N 51°54' E 004°27'0 0.0
2018-Jun-14 18:28N 51°54' E 004°27'0 0.0
2018-Jun-14 17:58N 51°54' E 004°27'0 0.0
2018-Jun-14 17:28N 51°54' E 004°27'0 0.0
2018-Jun-14 16:58N 51°54' E 004°27'0 0.0
2018-Jun-14 16:28N 51°54' E 004°27'0 0.0
2018-Jun-14 15:58N 51°54' E 004°27'0 0.0
2018-Jun-14 15:28N 51°54' E 004°27'0 0.3
2018-Jun-14 14:58N 51°54' E 004°26'1 3.1
2018-Jun-14 14:30N 51°53' E 004°24'1 0.9
2018-Jun-14 13:35N 51°53' E 004°25'0 0.0
2018-Jun-14 13:29N 51°53' E 004°25'0 0.0
2018-Jun-14 12:59N 51°53' E 004°25'0 0.0
2018-Jun-14 12:17N 51°53' E 004°25'0 0.0
2018-Jun-14 11:56N 51°53' E 004°25'0 0.0
2018-Jun-14 09:23N 51°53' E 004°25'0 0.0
2018-Jun-14 06:17N 51°53' E 004°25'0 0.0
2018-Jun-14 05:53N 51°53' E 004°25'0 0.0
2018-Jun-14 05:29N 51°53' E 004°25'0 0.0
2018-Jun-14 04:53N 51°53' E 004°25'0 0.0
2018-Jun-14 04:29N 51°53' E 004°25'0 0.0
2018-Jun-14 03:41N 51°53' E 004°25'0 0.0
2018-Jun-14 03:29N 51°53' E 004°25'0 0.0
2018-Jun-14 02:53N 51°53' E 004°25'0 0.0
2018-Jun-14 02:05N 51°53' E 004°25'0 0.0
2018-Jun-14 01:53N 51°53' E 004°25'0 0.0
2018-Jun-14 01:29N 51°53' E 004°25'0 0.0
2018-Jun-14 00:35N 51°53' E 004°25'0 0.0
2018-Jun-14 00:23N 51°53' E 004°25'0 0.0
2018-Jun-13 23:56N 51°53' E 004°25'0 0.0
2018-Jun-13 23:23N 51°53' E 004°25'0 0.0
2018-Jun-13 22:59N 51°53' E 004°25'0 0.0
2018-Jun-13 22:29N 51°53' E 004°25'0 0.0
2018-Jun-13 21:59N 51°53' E 004°25'0 0.0
2018-Jun-13 21:26N 51°53' E 004°25'0 0.0
2018-Jun-13 20:44N 51°53' E 004°25'0 0.7
2018-Jun-13 20:30N 51°53' E 004°25'1 1.2
2018-Jun-13 20:00N 51°53' E 004°24'3 6.9
2018-Jun-13 19:30N 51°54' E 004°19'510.0
2018-Jun-13 19:00N 51°56' E 004°12'510.8
2018-Jun-13 18:30N 51°59' E 004°05'611.2
2018-Jun-13 18:00N 51°60' E 003°56'5 9.8
2018-Jun-13 17:27N 51°58' E 003°47'1 0.8
2018-Jun-13 16:24N 51°57' E 003°47'0 0.1
2018-Jun-13 15:48N 51°57' E 003°47'0 0.0
2018-Jun-13 14:51N 51°57' E 003°47'0 0.0
2018-Jun-13 14:27N 51°57' E 003°47'0 0.0
2018-Jun-13 13:48N 51°57' E 003°47'0 0.2
2018-Jun-13 13:30N 51°57' E 003°47'5 9.1
2018-Jun-13 13:00N 51°57' E 003°39'814.4
2018-Jun-13 12:28N 51°56' E 003°27'814.7
2018-Jun-13 11:57N 51°54' E 003°15'714.7
2018-Jun-13 11:30N 51°53' E 003°04'1516.1
2018-Jun-13 10:35N 51°48' E 002°42'616.2
2018-Jun-13 10:14N 51°44' E 002°36'716.0
2018-Jun-13 09:46N 51°39' E 002°27'715.1
2018-Jun-13 09:19N 51°34' E 002°19'714.4
2018-Jun-13 08:51N 51°29' E 002°13'514.0
2018-Jun-13 08:30N 51°25' E 002°08'510.5
2018-Jun-13 08:00N 51°23' E 001°60'714.5
2018-Jun-13 07:30N 51°28' E 001°52'612.2
2018-Jun-13 07:00N 51°29' E 001°42'611.6
2018-Jun-13 06:30N 51°27' E 001°33'2 4.3
2018-Jun-13 06:01N 51°27' E 001°30'714.1
2018-Jun-13 05:30N 51°34' E 001°25'510.1
2018-Jun-13 05:00N 51°36' E 001°18'714.7
2018-Jun-13 04:30N 51°32' E 001°08'815.4
2018-Jun-13 04:00N 51°29' E 000°57'815.9
2018-Jun-13 03:30N 51°30' E 000°44'816.8
2018-Jun-13 03:00N 51°30' E 000°30'612.1
2018-Jun-13 02:31N 51°27' E 000°22'2 3.1
2018-Jun-13 02:01N 51°28' E 000°20'0 0.0
2018-Jun-13 01:31N 51°28' E 000°20'0 0.0
2018-Jun-13 01:00N 51°28' E 000°20'0 0.0
2018-Jun-13 00:31N 51°28' E 000°20'0 0.0
2018-Jun-13 00:01N 51°28' E 000°20'0 0.0
2018-Jun-12 23:31N 51°28' E 000°20'0 0.0
2018-Jun-12 23:01N 51°28' E 000°20'0 0.0
2018-Jun-12 22:31N 51°28' E 000°20'0 0.0
2018-Jun-12 22:01N 51°28' E 000°20'0 0.0
2018-Jun-12 21:31N 51°28' E 000°20'0 0.0
2018-Jun-12 21:00N 51°28' E 000°20'0 0.0
2018-Jun-12 20:31N 51°28' E 000°20'0 0.0
2018-Jun-12 20:00N 51°28' E 000°20'0 0.0
2018-Jun-12 19:31N 51°28' E 000°20'0 0.0
2018-Jun-12 19:01N 51°28' E 000°20'0 0.0
2018-Jun-12 18:31N 51°28' E 000°20'0 0.0
2018-Jun-12 18:01N 51°28' E 000°20'0 0.0
2018-Jun-12 17:31N 51°28' E 000°20'0 0.0
2018-Jun-12 17:01N 51°28' E 000°20'0 0.0
2018-Jun-12 16:31N 51°28' E 000°20'0 0.0
2018-Jun-12 16:00N 51°28' E 000°20'0 0.0
2018-Jun-12 15:30N 51°28' E 000°20'0 0.0
2018-Jun-12 15:01N 51°28' E 000°20'0 0.0
2018-Jun-12 14:31N 51°28' E 000°20'0 0.0
2018-Jun-12 14:01N 51°28' E 000°20'0 0.0
2018-Jun-12 13:31N 51°28' E 000°20'0 0.0
2018-Jun-12 13:01N 51°28' E 000°20'0 0.0
2018-Jun-12 12:31N 51°28' E 000°20'0 0.0
2018-Jun-12 12:01N 51°28' E 000°20'0 0.1
2018-Jun-12 11:31N 51°28' E 000°20'4 7.5
2018-Jun-12 11:01N 51°27' E 000°26'612.5
2018-Jun-12 10:30N 51°30' E 000°35'816.2
2018-Jun-12 10:01N 51°29' E 000°48'816.5
2018-Jun-12 09:31N 51°30' E 001°01'815.7
2018-Jun-12 09:00N 51°29' E 001°13'817.0
2018-Jun-12 08:30N 51°28' E 001°27'611.8
2018-Jun-12 08:00N 51°23' E 001°33'510.7
2018-Jun-12 07:30N 51°19' E 001°38'0 0.8
2018-Jun-12 07:01N 51°18' E 001°38'0 0.2
2018-Jun-12 06:30N 51°18' E 001°38'510.4
2018-Jun-12 06:00N 51°13' E 001°39'611.8
2018-Jun-12 05:30N 51°08' E 001°42'612.2
2018-Jun-12 05:00N 51°02' E 001°36'612.3
2018-Jun-12 04:30N 50°58' E 001°30'9412.6
2018-Jun-11 21:04N 50°13' W 000°40'114.1
2018-Jun-11 20:59N 50°12' W 000°42'714.4
2018-Jun-11 20:30N 50°11' W 000°52'714.8
2018-Jun-11 20:01N 50°09' W 001°03'815.6
2018-Jun-11 19:31N 50°07' W 001°15'816.2
2018-Jun-11 19:00N 50°05' W 001°27'816.5
2018-Jun-11 18:30N 50°03' W 001°40'816.8
2018-Jun-11 18:00N 50°01' W 001°52'2317.8
2018-Jun-11 16:42N 49°54' W 002°27'717.0
2018-Jun-11 16:17N 49°52' W 002°38'517.5
2018-Jun-11 16:00N 49°51' W 002°45'12516.1
2018-Jun-11 08:12N 48°49' W 005°32'  
Track history (hours):
 
Tides and Currents Weather Stations Pressure Air Temp Water Temp Dewpoint Dewpoint Depression Visibility Wind Speed Wind Dir Waves Ship Positions

Moveon

Last reported at 2018-Jun-19 10:29 UTC. Time now 2018-Jun-19 10:53 UTC.
Position N 49°21' E 000°59'.

Length 134 m; draft 8.6 m.

Type: Ship. MMSI: 255805846.

Date/timePositionNaut miles runAvg speedWind from/ knotsBaromVisibWave heightAir tempDewpointWater temp
2018-Jun-19 10:29N 49°21' E 000°59'0 0.0
2018-Jun-19 09:59N 49°21' E 000°59'0 0.0
2018-Jun-19 09:23N 49°21' E 000°59'0 0.0
2018-Jun-19 08:59N 49°21' E 000°59'0 0.0
2018-Jun-19 08:29N 49°21' E 000°59'0 0.0
2018-Jun-19 07:59N 49°21' E 000°59'0 0.0
2018-Jun-19 07:29N 49°21' E 000°59'0 0.0
2018-Jun-19 06:59N 49°21' E 000°59'0 0.0
2018-Jun-19 06:29N 49°21' E 000°59'0 0.0
2018-Jun-19 05:59N 49°21' E 000°59'0 0.0
2018-Jun-19 05:29N 49°21' E 000°59'0 0.0
2018-Jun-19 04:59N 49°21' E 000°59'0 0.0
2018-Jun-19 04:29N 49°21' E 000°59'0 0.0
2018-Jun-19 03:59N 49°21' E 000°59'0 0.0
2018-Jun-19 03:29N 49°21' E 000°59'0 0.3
2018-Jun-19 03:00N 49°21' E 000°59'3 5.5
2018-Jun-19 02:30N 49°23' E 000°55'612.6
2018-Jun-19 02:00N 49°29' E 000°55'5 9.8
2018-Jun-19 01:30N 49°24' E 000°52'4 7.5
2018-Jun-19 01:00N 49°28' E 000°49'510.5
2018-Jun-19 00:30N 49°31' E 000°43'511.0
2018-Jun-19 00:00N 49°27' E 000°39'5 9.7
2018-Jun-18 23:30N 49°28' E 000°32'611.9
2018-Jun-18 23:01N 49°27' E 000°23'815.0
2018-Jun-18 22:30N 49°26' E 000°11'713.6
2018-Jun-18 22:00N 49°27' E 000°01'5 9.7
2018-Jun-18 21:31N 49°29' W 000°06'611.0
2018-Jun-18 21:00N 49°28' W 000°14'0 0.3
2018-Jun-18 20:30N 49°28' W 000°14'0 0.8
2018-Jun-18 20:00N 49°28' W 000°14'0 0.8
2018-Jun-18 19:30N 49°29' W 000°14'0 0.8
2018-Jun-18 19:00N 49°29' W 000°13'0 0.7
2018-Jun-18 18:30N 49°29' W 000°13'3 5.2
2018-Jun-18 18:00N 49°32' W 000°12'510.5
2018-Jun-18 17:30N 49°37' W 000°10'612.9
2018-Jun-18 17:00N 49°43' W 000°09'612.7
2018-Jun-18 16:30N 49°49' W 000°09'612.6
2018-Jun-18 16:00N 49°56' W 000°08'814.9
2018-Jun-18 15:30N 50°03' W 000°08'4011.9
2018-Jun-18 12:07N 50°34' E 000°33'413.7
2018-Jun-18 11:50N 50°36' E 000°39'614.2
2018-Jun-18 11:25N 50°39' E 000°46'615.1
2018-Jun-18 11:00N 50°42' E 000°55'1616.5
2018-Jun-18 10:03N 50°52' E 001°14'217.6
2018-Jun-18 09:57N 50°54' E 001°16'818.1
2018-Jun-18 09:30N 50°59' E 001°25'917.9
2018-Jun-18 08:58N 51°06' E 001°36'612.8
2018-Jun-18 08:31N 51°04' E 001°45'916.3
2018-Jun-18 07:58N 51°02' E 001°59'713.7
2018-Jun-18 07:26N 51°02' E 002°10'1 0.7
2018-Jun-18 05:34N 51°00' E 002°11'0 0.0
2018-Jun-18 05:22N 51°00' E 002°11'0 0.0
2018-Jun-18 04:52N 51°00' E 002°11'0 0.0
2018-Jun-18 04:19N 51°00' E 002°11'0 0.0
2018-Jun-18 03:13N 51°00' E 002°11'0 0.0
2018-Jun-18 02:58N 51°00' E 002°11'0 0.0
2018-Jun-18 02:25N 51°00' E 002°11'0 0.0
2018-Jun-18 01:58N 51°00' E 002°11'0 0.0
2018-Jun-18 01:28N 51°00' E 002°11'0 0.0
2018-Jun-18 00:58N 51°00' E 002°11'0 0.0
2018-Jun-18 00:28N 51°00' E 002°11'0 0.0
2018-Jun-17 23:49N 51°00' E 002°11'0 0.0
2018-Jun-17 23:25N 51°00' E 002°11'0 0.4
2018-Jun-17 23:01N 51°01' E 002°11'4 6.9
2018-Jun-17 22:29N 51°03' E 002°06'713.9
2018-Jun-17 22:01N 51°02' E 001°56'510.8
2018-Jun-17 21:30N 51°02' E 001°47'613.0
2018-Jun-17 21:01N 51°07' E 001°40'713.3
2018-Jun-17 20:30N 51°13' E 001°45'816.2
2018-Jun-17 20:00N 51°19' E 001°53'815.0
2018-Jun-17 19:30N 51°25' E 002°00'815.9
2018-Jun-17 19:00N 51°22' E 002°12'714.2
2018-Jun-17 18:30N 51°22' E 002°24'814.7
2018-Jun-17 18:00N 51°23' E 002°36'713.5
2018-Jun-17 17:30N 51°22' E 002°46'713.5
2018-Jun-17 17:00N 51°23' E 002°57'714.1
2018-Jun-17 16:30N 51°24' E 003°08'714.0
2018-Jun-17 16:00N 51°25' E 003°19'713.9
2018-Jun-17 15:30N 51°25' E 003°30'510.2
2018-Jun-17 15:00N 51°26' E 003°38'4 7.9
2018-Jun-17 14:30N 51°24' E 003°43'612.9
2018-Jun-17 14:00N 51°21' E 003°52'713.3
2018-Jun-17 13:31N 51°26' E 003°59'611.6
2018-Jun-17 13:00N 51°22' E 004°06'5 9.8
2018-Jun-17 12:30N 51°22' E 004°14'2 2.3
2018-Jun-17 11:36N 51°20' E 004°17'0 0.0
2018-Jun-17 11:12N 51°20' E 004°17'0 0.0
2018-Jun-17 10:48N 51°20' E 004°17'0 0.0
2018-Jun-17 10:28N 51°20' E 004°17'0 0.0
2018-Jun-17 09:58N 51°20' E 004°17'0 0.0
2018-Jun-17 09:20N 51°20' E 004°17'0 0.0
2018-Jun-17 08:32N 51°20' E 004°17'0 0.0
2018-Jun-17 08:30N 51°20' E 004°17'0 0.0
2018-Jun-17 07:56N 51°20' E 004°17'0 0.0
2018-Jun-17 07:30N 51°20' E 004°17'0 0.0
2018-Jun-17 07:00N 51°20' E 004°17'0 0.0
2018-Jun-17 06:13N 51°20' E 004°17'0 0.0
2018-Jun-17 05:57N 51°20' E 004°17'0 0.0
2018-Jun-17 05:30N 51°20' E 004°17'0 0.0
2018-Jun-17 04:56N 51°20' E 004°17'0 0.0
2018-Jun-17 04:22N 51°20' E 004°17'0 0.0
2018-Jun-17 03:53N 51°20' E 004°17'0 0.0
2018-Jun-17 03:23N 51°20' E 004°17'0 0.0
2018-Jun-17 02:45N 51°20' E 004°17'0 0.0
2018-Jun-17 02:27N 51°20' E 004°17'0 0.0
2018-Jun-17 02:00N 51°20' E 004°17'0 0.0
2018-Jun-17 01:24N 51°20' E 004°17'1 1.9
2018-Jun-17 00:53N 51°21' E 004°15'410.6
2018-Jun-17 00:30N 51°24' E 004°11'510.7
2018-Jun-17 00:00N 51°24' E 004°02'4 7.8
2018-Jun-16 23:30N 51°23' E 003°56'714.9
2018-Jun-16 23:00N 51°22' E 003°44'713.2
2018-Jun-16 22:30N 51°26' E 003°35'713.3
2018-Jun-16 22:00N 51°25' E 003°25'815.3
2018-Jun-16 21:29N 51°24' E 003°12'814.6
2018-Jun-16 20:57N 51°25' E 002°60'715.7
2018-Jun-16 20:30N 51°32' E 003°05'915.4
2018-Jun-16 19:55N 51°40' E 003°12'1513.4
2018-Jun-16 18:48N 51°54' E 003°18'512.7
2018-Jun-16 18:24N 51°59' E 003°20'512.2
2018-Jun-16 17:58N 52°03' E 003°26'714.4
2018-Jun-16 17:30N 52°03' E 003°37'714.6
2018-Jun-16 17:00N 52°03' E 003°49'4 8.2
2018-Jun-16 16:30N 52°02' E 003°55'713.0
2018-Jun-16 16:00N 51°59' E 004°05'510.7
2018-Jun-16 15:30N 51°56' E 004°12'510.1
2018-Jun-16 15:00N 51°54' E 004°19'4 8.3
2018-Jun-16 14:30N 51°54' E 004°26'1 1.0
2018-Jun-16 13:49N 51°53' E 004°26'0 0.0
2018-Jun-16 13:28N 51°53' E 004°26'0 0.0
2018-Jun-16 12:55N 51°53' E 004°26'0 0.0
2018-Jun-16 12:28N 51°53' E 004°26'0 0.0
2018-Jun-16 11:58N 51°53' E 004°26'0 0.0
2018-Jun-16 11:28N 51°53' E 004°26'0 0.0
2018-Jun-16 10:55N 51°53' E 004°26'0 0.0
2018-Jun-16 10:28N 51°53' E 004°26'0 0.0
2018-Jun-16 09:58N 51°53' E 004°26'0 0.0
2018-Jun-16 09:25N 51°53' E 004°26'0 0.0
2018-Jun-16 08:58N 51°53' E 004°26'0 0.0
2018-Jun-16 08:28N 51°53' E 004°26'0 0.0
2018-Jun-16 07:58N 51°53' E 004°26'0 0.0
2018-Jun-16 07:28N 51°53' E 004°26'0 0.0
2018-Jun-16 06:58N 51°53' E 004°26'0 0.0
2018-Jun-16 06:28N 51°53' E 004°26'0 0.0
2018-Jun-16 05:58N 51°53' E 004°26'1 1.3
2018-Jun-16 05:28N 51°54' E 004°27'0 0.1
2018-Jun-16 04:58N 51°54' E 004°27'0 0.0
2018-Jun-16 04:28N 51°54' E 004°27'0 0.0
2018-Jun-16 03:55N 51°54' E 004°27'0 0.0
2018-Jun-16 03:28N 51°54' E 004°27'0 0.0
2018-Jun-16 02:58N 51°54' E 004°27'0 0.0
2018-Jun-16 02:28N 51°54' E 004°27'0 0.0
2018-Jun-16 01:58N 51°54' E 004°27'0 0.0
2018-Jun-16 01:28N 51°54' E 004°27'0 0.0
2018-Jun-16 00:58N 51°54' E 004°27'0 0.0
2018-Jun-16 00:28N 51°54' E 004°27'0 0.0
2018-Jun-15 23:58N 51°54' E 004°27'0 0.0
2018-Jun-15 23:28N 51°54' E 004°27'0 0.0
2018-Jun-15 22:58N 51°54' E 004°27'0 0.0
2018-Jun-15 22:28N 51°54' E 004°27'0 0.0
2018-Jun-15 21:58N 51°54' E 004°27'0 0.0
2018-Jun-15 21:28N 51°54' E 004°27'0 0.0
2018-Jun-15 20:58N 51°54' E 004°27'0 0.0
2018-Jun-15 20:28N 51°54' E 004°27'0 0.0
2018-Jun-15 19:58N 51°54' E 004°27'0 0.0
2018-Jun-15 19:28N 51°54' E 004°27'0 0.0
2018-Jun-15 18:58N 51°54' E 004°27'0 0.0
2018-Jun-15 18:28N 51°54' E 004°27'0 0.0
2018-Jun-15 17:58N 51°54' E 004°27'0 0.0
2018-Jun-15 17:28N 51°54' E 004°27'0 0.0
2018-Jun-15 16:58N 51°54' E 004°27'0 0.0
2018-Jun-15 16:28N 51°54' E 004°27'0 0.0
2018-Jun-15 15:58N 51°54' E 004°27'0 0.0
2018-Jun-15 15:25N 51°54' E 004°27'0 0.0
2018-Jun-15 14:58N 51°54' E 004°27'0 0.0
2018-Jun-15 14:28N 51°54' E 004°27'0 0.0
2018-Jun-15 13:58N 51°54' E 004°27'0 0.0
2018-Jun-15 13:28N 51°54' E 004°27'0 0.0
2018-Jun-15 12:58N 51°54' E 004°27'0 0.0
2018-Jun-15 12:28N 51°54' E 004°27'0 0.0
2018-Jun-15 11:58N 51°54' E 004°27'0 0.0
2018-Jun-15 11:28N 51°54' E 004°27'0 0.0
2018-Jun-15 10:58N 51°54' E 004°27'0 0.0
2018-Jun-15 10:25N 51°54' E 004°27'0 0.0
2018-Jun-15 09:58N 51°54' E 004°27'0 0.0
2018-Jun-15 09:28N 51°54' E 004°27'0 0.0
2018-Jun-15 08:58N 51°54' E 004°27'0 0.0
2018-Jun-15 08:28N 51°54' E 004°27'0 0.0
2018-Jun-15 07:55N 51°54' E 004°27'0 0.0
2018-Jun-15 07:28N 51°54' E 004°27'0 0.0
2018-Jun-15 06:58N 51°54' E 004°27'0 0.0
2018-Jun-15 06:25N 51°54' E 004°27'0 0.0
2018-Jun-15 05:58N 51°54' E 004°27'0 0.0
2018-Jun-15 05:28N 51°54' E 004°27'0 0.0
2018-Jun-15 04:58N 51°54' E 004°27'0 0.0
2018-Jun-15 04:28N 51°54' E 004°27'0 0.0
2018-Jun-15 03:58N 51°54' E 004°27'0 0.0
2018-Jun-15 03:28N 51°54' E 004°27'0 0.0
2018-Jun-15 02:58N 51°54' E 004°27'0 0.0
2018-Jun-15 02:28N 51°54' E 004°27'0 0.0
2018-Jun-15 01:58N 51°54' E 004°27'0 0.0
2018-Jun-15 01:28N 51°54' E 004°27'0 0.0
2018-Jun-15 00:58N 51°54' E 004°27'0 0.0
2018-Jun-15 00:28N 51°54' E 004°27'0 0.0
2018-Jun-14 23:58N 51°54' E 004°27'0 0.0
2018-Jun-14 23:28N 51°54' E 004°27'0 0.0
2018-Jun-14 22:58N 51°54' E 004°27'0 0.0
2018-Jun-14 22:28N 51°54' E 004°27'0 0.0
2018-Jun-14 21:58N 51°54' E 004°27'0 0.0
2018-Jun-14 21:28N 51°54' E 004°27'0 0.0
2018-Jun-14 20:58N 51°54' E 004°27'0 0.0
2018-Jun-14 20:28N 51°54' E 004°27'0 0.0
2018-Jun-14 19:58N 51°54' E 004°27'0 0.0
2018-Jun-14 19:28N 51°54' E 004°27'0 0.0
2018-Jun-14 18:55N 51°54' E 004°27'0 0.0
2018-Jun-14 18:28N 51°54' E 004°27'0 0.0
2018-Jun-14 17:58N 51°54' E 004°27'0 0.0
2018-Jun-14 17:28N 51°54' E 004°27'0 0.0
2018-Jun-14 16:58N 51°54' E 004°27'0 0.0
2018-Jun-14 16:28N 51°54' E 004°27'0 0.0
2018-Jun-14 15:58N 51°54' E 004°27'0 0.0
2018-Jun-14 15:28N 51°54' E 004°27'0 0.3
2018-Jun-14 14:58N 51°54' E 004°26'1 3.1
2018-Jun-14 14:30N 51°53' E 004°24'1 0.9
2018-Jun-14 13:35N 51°53' E 004°25'0 0.0
2018-Jun-14 13:29N 51°53' E 004°25'0 0.0
2018-Jun-14 12:59N 51°53' E 004°25'0 0.0
2018-Jun-14 12:17N 51°53' E 004°25'0 0.0
2018-Jun-14 11:56N 51°53' E 004°25'0 0.0
2018-Jun-14 09:23N 51°53' E 004°25'0 0.0
2018-Jun-14 06:17N 51°53' E 004°25'0 0.0
2018-Jun-14 05:53N 51°53' E 004°25'0 0.0
2018-Jun-14 05:29N 51°53' E 004°25'0 0.0
2018-Jun-14 04:53N 51°53' E 004°25'0 0.0
2018-Jun-14 04:29N 51°53' E 004°25'0 0.0
2018-Jun-14 03:41N 51°53' E 004°25'0 0.0
2018-Jun-14 03:29N 51°53' E 004°25'0 0.0
2018-Jun-14 02:53N 51°53' E 004°25'0 0.0
2018-Jun-14 02:05N 51°53' E 004°25'0 0.0
2018-Jun-14 01:53N 51°53' E 004°25'0 0.0
2018-Jun-14 01:29N 51°53' E 004°25'0 0.0
2018-Jun-14 00:35N 51°53' E 004°25'0 0.0
2018-Jun-14 00:23N 51°53' E 004°25'0 0.0
2018-Jun-13 23:56N 51°53' E 004°25'0 0.0
2018-Jun-13 23:23N 51°53' E 004°25'0 0.0
2018-Jun-13 22:59N 51°53' E 004°25'0 0.0
2018-Jun-13 22:29N 51°53' E 004°25'0 0.0
2018-Jun-13 21:59N 51°53' E 004°25'0 0.0
2018-Jun-13 21:26N 51°53' E 004°25'0 0.0
2018-Jun-13 20:44N 51°53' E 004°25'0 0.7
2018-Jun-13 20:30N 51°53' E 004°25'1 1.2
2018-Jun-13 20:00N 51°53' E 004°24'3 6.9
2018-Jun-13 19:30N 51°54' E 004°19'510.0
2018-Jun-13 19:00N 51°56' E 004°12'510.8
2018-Jun-13 18:30N 51°59' E 004°05'611.2
2018-Jun-13 18:00N 51°60' E 003°56'5 9.8
2018-Jun-13 17:27N 51°58' E 003°47'1 0.8
2018-Jun-13 16:24N 51°57' E 003°47'0 0.1
2018-Jun-13 15:48N 51°57' E 003°47'0 0.0
2018-Jun-13 14:51N 51°57' E 003°47'0 0.0
2018-Jun-13 14:27N 51°57' E 003°47'0 0.0
2018-Jun-13 13:48N 51°57' E 003°47'0 0.2
2018-Jun-13 13:30N 51°57' E 003°47'5 9.1
2018-Jun-13 13:00N 51°57' E 003°39'814.4
2018-Jun-13 12:28N 51°56' E 003°27'814.7
2018-Jun-13 11:57N 51°54' E 003°15'714.7
2018-Jun-13 11:30N 51°53' E 003°04'1516.1
2018-Jun-13 10:35N 51°48' E 002°42'616.2
2018-Jun-13 10:14N 51°44' E 002°36'716.0
2018-Jun-13 09:46N 51°39' E 002°27'715.1
2018-Jun-13 09:19N 51°34' E 002°19'714.4
2018-Jun-13 08:51N 51°29' E 002°13'514.0
2018-Jun-13 08:30N 51°25' E 002°08'510.5
2018-Jun-13 08:00N 51°23' E 001°60'714.5
2018-Jun-13 07:30N 51°28' E 001°52'612.2
2018-Jun-13 07:00N 51°29' E 001°42'611.6
2018-Jun-13 06:30N 51°27' E 001°33'2 4.3
2018-Jun-13 06:01N 51°27' E 001°30'714.1
2018-Jun-13 05:30N 51°34' E 001°25'510.1
2018-Jun-13 05:00N 51°36' E 001°18'714.7
2018-Jun-13 04:30N 51°32' E 001°08'815.4
2018-Jun-13 04:00N 51°29' E 000°57'815.9
2018-Jun-13 03:30N 51°30' E 000°44'816.8
2018-Jun-13 03:00N 51°30' E 000°30'612.1
2018-Jun-13 02:31N 51°27' E 000°22'2 3.1
2018-Jun-13 02:01N 51°28' E 000°20'0 0.0
2018-Jun-13 01:31N 51°28' E 000°20'0 0.0
2018-Jun-13 01:00N 51°28' E 000°20'0 0.0
2018-Jun-13 00:31N 51°28' E 000°20'0 0.0
2018-Jun-13 00:01N 51°28' E 000°20'0 0.0
2018-Jun-12 23:31N 51°28' E 000°20'0 0.0
2018-Jun-12 23:01N 51°28' E 000°20'0 0.0
2018-Jun-12 22:31N 51°28' E 000°20'0 0.0
2018-Jun-12 22:01N 51°28' E 000°20'0 0.0
2018-Jun-12 21:31N 51°28' E 000°20'0 0.0
2018-Jun-12 21:00N 51°28' E 000°20'0 0.0
2018-Jun-12 20:31N 51°28' E 000°20'0 0.0
2018-Jun-12 20:00N 51°28' E 000°20'0 0.0
2018-Jun-12 19:31N 51°28' E 000°20'0 0.0
2018-Jun-12 19:01N 51°28' E 000°20'0 0.0
2018-Jun-12 18:31N 51°28' E 000°20'0 0.0
2018-Jun-12 18:01N 51°28' E 000°20'0 0.0
2018-Jun-12 17:31N 51°28' E 000°20'0 0.0
2018-Jun-12 17:01N 51°28' E 000°20'0 0.0
2018-Jun-12 16:31N 51°28' E 000°20'0 0.0
2018-Jun-12 16:00N 51°28' E 000°20'0 0.0
2018-Jun-12 15:30N 51°28' E 000°20'0 0.0
2018-Jun-12 15:01N 51°28' E 000°20'0 0.0
2018-Jun-12 14:31N 51°28' E 000°20'0 0.0
2018-Jun-12 14:01N 51°28' E 000°20'0 0.0
2018-Jun-12 13:31N 51°28' E 000°20'0 0.0
2018-Jun-12 13:01N 51°28' E 000°20'0 0.0
2018-Jun-12 12:31N 51°28' E 000°20'0 0.0
2018-Jun-12 12:01N 51°28' E 000°20'0 0.1
2018-Jun-12 11:31N 51°28' E 000°20'4 7.5
2018-Jun-12 11:01N 51°27' E 000°26'612.5
2018-Jun-12 10:30N 51°30' E 000°35'816.2
2018-Jun-12 10:01N 51°29' E 000°48'816.5
2018-Jun-12 09:31N 51°30' E 001°01'815.7
2018-Jun-12 09:00N 51°29' E 001°13'817.0
2018-Jun-12 08:30N 51°28' E 001°27'611.8
2018-Jun-12 08:00N 51°23' E 001°33'510.7
2018-Jun-12 07:30N 51°19' E 001°38'0 0.8
2018-Jun-12 07:01N 51°18' E 001°38'0 0.2
2018-Jun-12 06:30N 51°18' E 001°38'510.4
2018-Jun-12 06:00N 51°13' E 001°39'611.8
2018-Jun-12 05:30N 51°08' E 001°42'612.2
2018-Jun-12 05:00N 51°02' E 001°36'612.3
2018-Jun-12 04:30N 50°58' E 001°30'9412.6
2018-Jun-11 21:04N 50°13' W 000°40'114.1
2018-Jun-11 20:59N 50°12' W 000°42'714.4
2018-Jun-11 20:30N 50°11' W 000°52'714.8
2018-Jun-11 20:01N 50°09' W 001°03'815.6
2018-Jun-11 19:31N 50°07' W 001°15'816.2
2018-Jun-11 19:00N 50°05' W 001°27'816.5
2018-Jun-11 18:30N 50°03' W 001°40'816.8
2018-Jun-11 18:00N 50°01' W 001°52'2317.8
2018-Jun-11 16:42N 49°54' W 002°27'717.0
2018-Jun-11 16:17N 49°52' W 002°38'517.5
2018-Jun-11 16:00N 49°51' W 002°45'12516.1
2018-Jun-11 08:12N 48°49' W 005°32'  

Dump ship's entire track history